sensor_id;sensor_type;location;lat;lon;timestamp;P1;durP1;ratioP1;P2;durP2;ratioP2
31836;SDS011;18401;49.344;6.240;2022-12-29T00:01:54;2.83;;;2.08;;
31836;SDS011;18401;49.344;6.240;2022-12-29T00:04:20;3.25;;;1.95;;
31836;SDS011;18401;49.344;6.240;2022-12-29T00:06:46;2.40;;;2.00;;
31836;SDS011;18401;49.344;6.240;2022-12-29T00:09:13;2.00;;;1.80;;
31836;SDS011;18401;49.344;6.240;2022-12-29T00:11:40;5.82;;;2.00;;
31836;SDS011;18401;49.344;6.240;2022-12-29T00:14:08;7.55;;;2.30;;
31836;SDS011;18401;49.344;6.240;2022-12-29T00:16:53;4.35;;;2.38;;
31836;SDS011;18401;49.344;6.240;2022-12-29T00:19:19;2.22;;;1.75;;
31836;SDS011;18401;49.344;6.240;2022-12-29T00:22:03;2.33;;;1.60;;
31836;SDS011;18401;49.344;6.240;2022-12-29T00:24:47;4.88;;;2.13;;
31836;SDS011;18401;49.344;6.240;2022-12-29T00:27:25;4.80;;;2.22;;
31836;SDS011;18401;49.344;6.240;2022-12-29T00:30:15;3.17;;;1.95;;
31836;SDS011;18401;49.344;6.240;2022-12-29T00:33:07;3.25;;;1.90;;
31836;SDS011;18401;49.344;6.240;2022-12-29T00:38:27;3.78;;;1.80;;
31836;SDS011;18401;49.344;6.240;2022-12-29T00:41:12;3.47;;;1.85;;
31836;SDS011;18401;49.344;6.240;2022-12-29T00:43:57;4.00;;;1.90;;
31836;SDS011;18401;49.344;6.240;2022-12-29T00:46:32;6.47;;;2.13;;
31836;SDS011;18401;49.344;6.240;2022-12-29T00:48:59;5.43;;;1.92;;
31836;SDS011;18401;49.344;6.240;2022-12-29T00:51:44;1.98;;;1.80;;
31836;SDS011;18401;49.344;6.240;2022-12-29T00:54:10;6.70;;;2.50;;
31836;SDS011;18401;49.344;6.240;2022-12-29T00:56:36;8.52;;;3.42;;
31836;SDS011;18401;49.344;6.240;2022-12-29T00:59:02;5.47;;;2.47;;
31836;SDS011;18401;49.344;6.240;2022-12-29T01:01:29;4.93;;;2.63;;
31836;SDS011;18401;49.344;6.240;2022-12-29T01:03:55;6.30;;;2.80;;
31836;SDS011;18401;49.344;6.240;2022-12-29T01:06:20;6.32;;;2.80;;
31836;SDS011;18401;49.344;6.240;2022-12-29T01:08:46;5.32;;;2.90;;
31836;SDS011;18401;49.344;6.240;2022-12-29T01:11:32;10.85;;;3.33;;
31836;SDS011;18401;49.344;6.240;2022-12-29T01:13:57;5.72;;;2.70;;
31836;SDS011;18401;49.344;6.240;2022-12-29T01:16:23;4.97;;;2.75;;
31836;SDS011;18401;49.344;6.240;2022-12-29T01:18:48;6.25;;;2.90;;
31836;SDS011;18401;49.344;6.240;2022-12-29T01:21:14;5.07;;;2.40;;
31836;SDS011;18401;49.344;6.240;2022-12-29T01:23:40;4.47;;;2.75;;
31836;SDS011;18401;49.344;6.240;2022-12-29T01:26:12;7.50;;;3.00;;
31836;SDS011;18401;49.344;6.240;2022-12-29T01:28:39;8.63;;;2.97;;
31836;SDS011;18401;49.344;6.240;2022-12-29T01:31:06;6.88;;;2.75;;
31836;SDS011;18401;49.344;6.240;2022-12-29T01:33:33;4.15;;;2.80;;
31836;SDS011;18401;49.344;6.240;2022-12-29T01:36:02;6.45;;;2.60;;
31836;SDS011;18401;49.344;6.240;2022-12-29T01:38:29;10.00;;;2.45;;
31836;SDS011;18401;49.344;6.240;2022-12-29T01:40:55;6.93;;;2.83;;
31836;SDS011;18401;49.344;6.240;2022-12-29T01:43:20;7.18;;;2.55;;
31836;SDS011;18401;49.344;6.240;2022-12-29T01:45:52;6.40;;;2.60;;
31836;SDS011;18401;49.344;6.240;2022-12-29T01:48:19;5.70;;;2.40;;
31836;SDS011;18401;49.344;6.240;2022-12-29T01:50:46;2.63;;;1.85;;
31836;SDS011;18401;49.344;6.240;2022-12-29T01:53:26;4.63;;;2.08;;
31836;SDS011;18401;49.344;6.240;2022-12-29T01:55:54;2.28;;;1.90;;
31836;SDS011;18401;49.344;6.240;2022-12-29T01:58:25;4.75;;;2.13;;
31836;SDS011;18401;49.344;6.240;2022-12-29T02:00:54;3.75;;;2.00;;
31836;SDS011;18401;49.344;6.240;2022-12-29T02:03:20;6.88;;;2.10;;
31836;SDS011;18401;49.344;6.240;2022-12-29T02:05:52;5.03;;;2.05;;
31836;SDS011;18401;49.344;6.240;2022-12-29T02:08:23;3.17;;;1.63;;
31836;SDS011;18401;49.344;6.240;2022-12-29T02:10:53;2.08;;;1.52;;
31836;SDS011;18401;49.344;6.240;2022-12-29T02:13:20;2.47;;;1.30;;
31836;SDS011;18401;49.344;6.240;2022-12-29T02:16:29;2.95;;;1.88;;
31836;SDS011;18401;49.344;6.240;2022-12-29T02:21:27;2.67;;;1.37;;
31836;SDS011;18401;49.344;6.240;2022-12-29T02:26:46;3.33;;;1.23;;
31836;SDS011;18401;49.344;6.240;2022-12-29T02:29:42;7.75;;;1.67;;
31836;SDS011;18401;49.344;6.240;2022-12-29T02:36:14;1.92;;;1.25;;
31836;SDS011;18401;49.344;6.240;2022-12-29T02:41:26;5.95;;;1.67;;
31836;SDS011;18401;49.344;6.240;2022-12-29T02:46:37;3.30;;;1.35;;
31836;SDS011;18401;49.344;6.240;2022-12-29T02:51:36;1.45;;;1.27;;
31836;SDS011;18401;49.344;6.240;2022-12-29T02:54:18;3.15;;;1.60;;
31836;SDS011;18401;49.344;6.240;2022-12-29T02:59:39;4.47;;;1.33;;
31836;SDS011;18401;49.344;6.240;2022-12-29T03:16:19;6.28;;;2.03;;
31836;SDS011;18401;49.344;6.240;2022-12-29T03:18:51;3.40;;;1.40;;
31836;SDS011;18401;49.344;6.240;2022-12-29T03:24:17;6.35;;;1.98;;
31836;SDS011;18401;49.344;6.240;2022-12-29T03:26:45;3.80;;;1.30;;
31836;SDS011;18401;49.344;6.240;2022-12-29T03:29:14;2.80;;;1.25;;
31836;SDS011;18401;49.344;6.240;2022-12-29T03:31:43;1.30;;;1.20;;
31836;SDS011;18401;49.344;6.240;2022-12-29T03:34:09;2.03;;;1.40;;
31836;SDS011;18401;49.344;6.240;2022-12-29T03:36:39;2.83;;;1.55;;
31836;SDS011;18401;49.344;6.240;2022-12-29T03:39:20;2.35;;;1.20;;
31836;SDS011;18401;49.344;6.240;2022-12-29T03:41:48;1.48;;;1.15;;
31836;SDS011;18401;49.344;6.240;2022-12-29T03:44:19;4.47;;;1.45;;
31836;SDS011;18401;49.344;6.240;2022-12-29T03:46:46;1.50;;;1.10;;
31836;SDS011;18401;49.344;6.240;2022-12-29T03:49:11;3.15;;;1.10;;
31836;SDS011;18401;49.344;6.240;2022-12-29T03:51:37;2.85;;;1.20;;
31836;SDS011;18401;49.344;6.240;2022-12-29T03:54:03;2.67;;;1.20;;
31836;SDS011;18401;49.344;6.240;2022-12-29T03:56:28;1.38;;;1.02;;
31836;SDS011;18401;49.344;6.240;2022-12-29T03:58:54;4.13;;;0.80;;
31836;SDS011;18401;49.344;6.240;2022-12-29T04:01:19;3.75;;;1.48;;
31836;SDS011;18401;49.344;6.240;2022-12-29T04:03:45;2.10;;;1.35;;
31836;SDS011;18401;49.344;6.240;2022-12-29T04:06:11;3.30;;;1.10;;
31836;SDS011;18401;49.344;6.240;2022-12-29T04:08:36;2.08;;;1.10;;
31836;SDS011;18401;49.344;6.240;2022-12-29T04:11:02;4.10;;;1.60;;
31836;SDS011;18401;49.344;6.240;2022-12-29T04:13:28;2.25;;;1.10;;
31836;SDS011;18401;49.344;6.240;2022-12-29T04:15:54;1.60;;;1.20;;
31836;SDS011;18401;49.344;6.240;2022-12-29T04:18:19;2.20;;;1.50;;
31836;SDS011;18401;49.344;6.240;2022-12-29T04:20:45;1.08;;;0.88;;
31836;SDS011;18401;49.344;6.240;2022-12-29T04:23:27;1.20;;;1.08;;
31836;SDS011;18401;49.344;6.240;2022-12-29T04:25:54;3.17;;;1.52;;
31836;SDS011;18401;49.344;6.240;2022-12-29T04:28:19;2.17;;;1.20;;
31836;SDS011;18401;49.344;6.240;2022-12-29T04:30:45;2.45;;;1.10;;
31836;SDS011;18401;49.344;6.240;2022-12-29T04:33:12;2.08;;;1.30;;
31836;SDS011;18401;49.344;6.240;2022-12-29T04:35:38;1.55;;;1.00;;
31836;SDS011;18401;49.344;6.240;2022-12-29T04:38:04;2.08;;;1.08;;
31836;SDS011;18401;49.344;6.240;2022-12-29T04:40:30;1.42;;;1.25;;
31836;SDS011;18401;49.344;6.240;2022-12-29T04:42:55;3.55;;;1.30;;
31836;SDS011;18401;49.344;6.240;2022-12-29T04:45:21;3.47;;;0.82;;
31836;SDS011;18401;49.344;6.240;2022-12-29T04:47:47;2.95;;;1.02;;
31836;SDS011;18401;49.344;6.240;2022-12-29T04:50:13;2.53;;;1.30;;
31836;SDS011;18401;49.344;6.240;2022-12-29T04:52:38;2.38;;;1.23;;
31836;SDS011;18401;49.344;6.240;2022-12-29T04:55:04;4.90;;;1.30;;
31836;SDS011;18401;49.344;6.240;2022-12-29T04:57:30;7.18;;;1.75;;
31836;SDS011;18401;49.344;6.240;2022-12-29T04:59:56;2.45;;;1.30;;
31836;SDS011;18401;49.344;6.240;2022-12-29T05:02:22;5.72;;;1.05;;
31836;SDS011;18401;49.344;6.240;2022-12-29T05:04:48;5.20;;;2.10;;
31836;SDS011;18401;49.344;6.240;2022-12-29T05:07:13;4.53;;;1.40;;
31836;SDS011;18401;49.344;6.240;2022-12-29T05:09:39;1.40;;;1.30;;
31836;SDS011;18401;49.344;6.240;2022-12-29T05:12:05;3.67;;;1.38;;
31836;SDS011;18401;49.344;6.240;2022-12-29T05:14:31;3.30;;;1.55;;
31836;SDS011;18401;49.344;6.240;2022-12-29T05:16:57;2.17;;;1.33;;
31836;SDS011;18401;49.344;6.240;2022-12-29T05:19:22;2.17;;;1.65;;
31836;SDS011;18401;49.344;6.240;2022-12-29T05:21:48;2.03;;;1.27;;
31836;SDS011;18401;49.344;6.240;2022-12-29T05:24:14;4.13;;;1.40;;
31836;SDS011;18401;49.344;6.240;2022-12-29T05:26:40;5.72;;;1.20;;
31836;SDS011;18401;49.344;6.240;2022-12-29T05:29:06;3.10;;;1.30;;
31836;SDS011;18401;49.344;6.240;2022-12-29T05:31:32;4.85;;;1.48;;
31836;SDS011;18401;49.344;6.240;2022-12-29T05:34:00;2.60;;;1.17;;
31836;SDS011;18401;49.344;6.240;2022-12-29T05:36:26;1.98;;;1.60;;
31836;SDS011;18401;49.344;6.240;2022-12-29T05:38:52;2.38;;;1.60;;
31836;SDS011;18401;49.344;6.240;2022-12-29T05:41:17;4.43;;;1.77;;
31836;SDS011;18401;49.344;6.240;2022-12-29T05:43:43;5.55;;;1.50;;
31836;SDS011;18401;49.344;6.240;2022-12-29T05:46:09;7.15;;;1.58;;
31836;SDS011;18401;49.344;6.240;2022-12-29T05:48:35;2.05;;;1.65;;
31836;SDS011;18401;49.344;6.240;2022-12-29T05:51:01;3.75;;;1.77;;
31836;SDS011;18401;49.344;6.240;2022-12-29T05:53:26;9.30;;;1.70;;
31836;SDS011;18401;49.344;6.240;2022-12-29T05:55:52;2.47;;;1.60;;
31836;SDS011;18401;49.344;6.240;2022-12-29T05:58:18;8.45;;;1.88;;
31836;SDS011;18401;49.344;6.240;2022-12-29T06:00:44;3.00;;;1.73;;
31836;SDS011;18401;49.344;6.240;2022-12-29T06:03:10;5.13;;;1.90;;
31836;SDS011;18401;49.344;6.240;2022-12-29T06:05:35;6.88;;;1.90;;
31836;SDS011;18401;49.344;6.240;2022-12-29T06:08:01;5.57;;;1.75;;
31836;SDS011;18401;49.344;6.240;2022-12-29T06:10:27;7.75;;;1.70;;
31836;SDS011;18401;49.344;6.240;2022-12-29T06:12:53;2.28;;;1.67;;
31836;SDS011;18401;49.344;6.240;2022-12-29T06:15:19;4.40;;;1.80;;
31836;SDS011;18401;49.344;6.240;2022-12-29T06:17:44;2.78;;;1.55;;
31836;SDS011;18401;49.344;6.240;2022-12-29T06:20:11;9.40;;;3.15;;
31836;SDS011;18401;49.344;6.240;2022-12-29T06:22:36;8.95;;;2.28;;
31836;SDS011;18401;49.344;6.240;2022-12-29T06:25:02;3.60;;;1.98;;
31836;SDS011;18401;49.344;6.240;2022-12-29T06:27:29;6.15;;;2.22;;
31836;SDS011;18401;49.344;6.240;2022-12-29T06:29:54;8.40;;;2.50;;
31836;SDS011;18401;49.344;6.240;2022-12-29T06:32:20;6.70;;;2.40;;
31836;SDS011;18401;49.344;6.240;2022-12-29T06:34:46;6.38;;;2.33;;
31836;SDS011;18401;49.344;6.240;2022-12-29T06:37:11;3.83;;;2.55;;
31836;SDS011;18401;49.344;6.240;2022-12-29T06:39:38;8.35;;;2.42;;
31836;SDS011;18401;49.344;6.240;2022-12-29T06:42:03;4.40;;;2.10;;
31836;SDS011;18401;49.344;6.240;2022-12-29T06:44:29;7.85;;;2.28;;
31836;SDS011;18401;49.344;6.240;2022-12-29T06:46:55;4.82;;;2.03;;
31836;SDS011;18401;49.344;6.240;2022-12-29T06:49:22;8.13;;;2.45;;
31836;SDS011;18401;49.344;6.240;2022-12-29T06:51:47;2.47;;;1.98;;
31836;SDS011;18401;49.344;6.240;2022-12-29T06:54:13;4.45;;;1.80;;
31836;SDS011;18401;49.344;6.240;2022-12-29T06:56:39;2.97;;;1.67;;
31836;SDS011;18401;49.344;6.240;2022-12-29T06:59:04;3.40;;;2.03;;
31836;SDS011;18401;49.344;6.240;2022-12-29T07:01:30;2.25;;;1.65;;
31836;SDS011;18401;49.344;6.240;2022-12-29T07:03:56;6.05;;;2.47;;
31836;SDS011;18401;49.344;6.240;2022-12-29T07:06:22;4.35;;;2.17;;
31836;SDS011;18401;49.344;6.240;2022-12-29T07:08:48;2.63;;;1.65;;
31836;SDS011;18401;49.344;6.240;2022-12-29T07:11:14;4.70;;;1.75;;
31836;SDS011;18401;49.344;6.240;2022-12-29T07:13:40;4.10;;;1.90;;
31836;SDS011;18401;49.344;6.240;2022-12-29T07:16:07;3.08;;;2.13;;
31836;SDS011;18401;49.344;6.240;2022-12-29T07:18:33;2.55;;;1.70;;
31836;SDS011;18401;49.344;6.240;2022-12-29T07:20:59;5.53;;;1.67;;
31836;SDS011;18401;49.344;6.240;2022-12-29T07:23:25;6.20;;;1.95;;
31836;SDS011;18401;49.344;6.240;2022-12-29T07:25:58;3.75;;;1.73;;
31836;SDS011;18401;49.344;6.240;2022-12-29T07:28:28;3.05;;;1.63;;
31836;SDS011;18401;49.344;6.240;2022-12-29T07:30:53;5.10;;;1.63;;
31836;SDS011;18401;49.344;6.240;2022-12-29T07:33:19;4.25;;;1.98;;
31836;SDS011;18401;49.344;6.240;2022-12-29T07:35:45;5.20;;;1.80;;
31836;SDS011;18401;49.344;6.240;2022-12-29T07:38:10;6.28;;;1.63;;
31836;SDS011;18401;49.344;6.240;2022-12-29T07:40:36;9.20;;;2.20;;
31836;SDS011;18401;49.344;6.240;2022-12-29T07:43:02;2.42;;;1.50;;
31836;SDS011;18401;49.344;6.240;2022-12-29T07:45:29;3.90;;;1.77;;
31836;SDS011;18401;49.344;6.240;2022-12-29T07:47:55;6.13;;;1.70;;
31836;SDS011;18401;49.344;6.240;2022-12-29T07:50:20;4.45;;;1.98;;
31836;SDS011;18401;49.344;6.240;2022-12-29T07:52:46;6.57;;;1.58;;
31836;SDS011;18401;49.344;6.240;2022-12-29T07:55:13;3.40;;;1.83;;
31836;SDS011;18401;49.344;6.240;2022-12-29T07:57:39;3.25;;;1.48;;
31836;SDS011;18401;49.344;6.240;2022-12-29T08:00:05;3.33;;;1.58;;
31836;SDS011;18401;49.344;6.240;2022-12-29T08:02:31;4.00;;;2.05;;
31836;SDS011;18401;49.344;6.240;2022-12-29T08:04:56;3.13;;;1.35;;
31836;SDS011;18401;49.344;6.240;2022-12-29T08:07:22;1.95;;;1.42;;
31836;SDS011;18401;49.344;6.240;2022-12-29T08:09:48;2.35;;;1.60;;
31836;SDS011;18401;49.344;6.240;2022-12-29T08:12:13;3.65;;;1.58;;
31836;SDS011;18401;49.344;6.240;2022-12-29T08:14:39;4.72;;;1.63;;
31836;SDS011;18401;49.344;6.240;2022-12-29T08:17:05;4.00;;;1.80;;
31836;SDS011;18401;49.344;6.240;2022-12-29T08:19:30;2.60;;;2.00;;
31836;SDS011;18401;49.344;6.240;2022-12-29T08:21:56;4.60;;;1.50;;
31836;SDS011;18401;49.344;6.240;2022-12-29T08:24:22;5.03;;;1.88;;
31836;SDS011;18401;49.344;6.240;2022-12-29T08:26:47;3.90;;;1.50;;
31836;SDS011;18401;49.344;6.240;2022-12-29T08:29:13;2.40;;;1.35;;
31836;SDS011;18401;49.344;6.240;2022-12-29T08:31:39;6.78;;;1.13;;
31836;SDS011;18401;49.344;6.240;2022-12-29T08:34:04;4.10;;;0.98;;
31836;SDS011;18401;49.344;6.240;2022-12-29T08:36:30;3.85;;;1.08;;
31836;SDS011;18401;49.344;6.240;2022-12-29T08:38:56;2.00;;;1.15;;
31836;SDS011;18401;49.344;6.240;2022-12-29T08:41:22;1.15;;;1.00;;
31836;SDS011;18401;49.344;6.240;2022-12-29T08:43:48;2.92;;;1.00;;
31836;SDS011;18401;49.344;6.240;2022-12-29T08:46:15;5.63;;;0.90;;
31836;SDS011;18401;49.344;6.240;2022-12-29T08:48:41;3.35;;;1.00;;
31836;SDS011;18401;49.344;6.240;2022-12-29T08:51:07;2.95;;;1.00;;
31836;SDS011;18401;49.344;6.240;2022-12-29T08:53:33;6.03;;;0.95;;
31836;SDS011;18401;49.344;6.240;2022-12-29T08:55:59;4.15;;;1.20;;
31836;SDS011;18401;49.344;6.240;2022-12-29T08:58:26;2.97;;;0.88;;
31836;SDS011;18401;49.344;6.240;2022-12-29T09:00:55;3.53;;;0.80;;
31836;SDS011;18401;49.344;6.240;2022-12-29T09:03:22;2.20;;;1.10;;
31836;SDS011;18401;49.344;6.240;2022-12-29T09:05:49;4.45;;;1.75;;
31836;SDS011;18401;49.344;6.240;2022-12-29T09:08:15;1.25;;;0.80;;
31836;SDS011;18401;49.344;6.240;2022-12-29T09:10:41;1.42;;;0.80;;
31836;SDS011;18401;49.344;6.240;2022-12-29T09:13:07;5.35;;;1.20;;
31836;SDS011;18401;49.344;6.240;2022-12-29T09:15:33;4.13;;;1.00;;
31836;SDS011;18401;49.344;6.240;2022-12-29T09:17:59;2.42;;;0.80;;
31836;SDS011;18401;49.344;6.240;2022-12-29T09:20:25;5.60;;;1.17;;
31836;SDS011;18401;49.344;6.240;2022-12-29T09:22:50;6.72;;;1.42;;
31836;SDS011;18401;49.344;6.240;2022-12-29T09:25:16;4.63;;;1.08;;
31836;SDS011;18401;49.344;6.240;2022-12-29T09:27:43;3.38;;;0.98;;
31836;SDS011;18401;49.344;6.240;2022-12-29T09:30:09;5.40;;;1.08;;
31836;SDS011;18401;49.344;6.240;2022-12-29T09:32:37;5.47;;;1.02;;
31836;SDS011;18401;49.344;6.240;2022-12-29T09:35:03;3.17;;;0.95;;
31836;SDS011;18401;49.344;6.240;2022-12-29T09:37:29;3.97;;;1.15;;
31836;SDS011;18401;49.344;6.240;2022-12-29T09:39:55;7.38;;;1.13;;
31836;SDS011;18401;49.344;6.240;2022-12-29T09:42:41;2.47;;;0.80;;
31836;SDS011;18401;49.344;6.240;2022-12-29T09:45:24;4.03;;;1.20;;
31836;SDS011;18401;49.344;6.240;2022-12-29T09:47:59;2.97;;;0.90;;
31836;SDS011;18401;49.344;6.240;2022-12-29T09:50:29;3.33;;;1.10;;
31836;SDS011;18401;49.344;6.240;2022-12-29T09:53:14;7.25;;;1.33;;
31836;SDS011;18401;49.344;6.240;2022-12-29T09:55:54;2.13;;;0.80;;
31836;SDS011;18401;49.344;6.240;2022-12-29T09:58:35;2.55;;;0.90;;
31836;SDS011;18401;49.344;6.240;2022-12-29T10:03:50;3.70;;;0.77;;
31836;SDS011;18401;49.344;6.240;2022-12-29T10:06:32;7.45;;;1.17;;
31836;SDS011;18401;49.344;6.240;2022-12-29T10:25:21;1.67;;;0.90;;
31836;SDS011;18401;49.344;6.240;2022-12-29T10:27:50;5.30;;;1.00;;
31836;SDS011;18401;49.344;6.240;2022-12-29T10:30:18;1.73;;;0.95;;
31836;SDS011;18401;49.344;6.240;2022-12-29T10:32:46;2.58;;;1.15;;
31836;SDS011;18401;49.344;6.240;2022-12-29T10:35:21;6.80;;;1.15;;
31836;SDS011;18401;49.344;6.240;2022-12-29T10:41:20;4.30;;;1.02;;
31836;SDS011;18401;49.344;6.240;2022-12-29T10:43:51;5.13;;;0.80;;
31836;SDS011;18401;49.344;6.240;2022-12-29T10:46:20;6.35;;;0.90;;
31836;SDS011;18401;49.344;6.240;2022-12-29T10:48:49;4.45;;;1.23;;
31836;SDS011;18401;49.344;6.240;2022-12-29T10:51:18;5.47;;;1.15;;
31836;SDS011;18401;49.344;6.240;2022-12-29T10:53:59;4.40;;;0.98;;
31836;SDS011;18401;49.344;6.240;2022-12-29T10:56:32;5.35;;;1.13;;
31836;SDS011;18401;49.344;6.240;2022-12-29T10:59:14;5.70;;;1.25;;
31836;SDS011;18401;49.344;6.240;2022-12-29T11:04:49;2.28;;;0.90;;
31836;SDS011;18401;49.344;6.240;2022-12-29T11:07:27;3.35;;;0.80;;
31836;SDS011;18401;49.344;6.240;2022-12-29T11:09:55;4.97;;;1.30;;
31836;SDS011;18401;49.344;6.240;2022-12-29T11:12:40;4.20;;;1.05;;
31836;SDS011;18401;49.344;6.240;2022-12-29T11:17:51;7.57;;;1.02;;
31836;SDS011;18401;49.344;6.240;2022-12-29T11:20:23;6.50;;;1.00;;
31836;SDS011;18401;49.344;6.240;2022-12-29T11:22:52;3.30;;;0.90;;
31836;SDS011;18401;49.344;6.240;2022-12-29T11:25:18;4.65;;;1.02;;
31836;SDS011;18401;49.344;6.240;2022-12-29T11:27:54;5.97;;;0.95;;
31836;SDS011;18401;49.344;6.240;2022-12-29T11:30:27;3.15;;;0.82;;
31836;SDS011;18401;49.344;6.240;2022-12-29T11:32:55;4.93;;;0.85;;
31836;SDS011;18401;49.344;6.240;2022-12-29T11:35:32;3.50;;;0.93;;
31836;SDS011;18401;49.344;6.240;2022-12-29T11:38:05;2.47;;;0.98;;
31836;SDS011;18401;49.344;6.240;2022-12-29T11:40:41;5.47;;;0.82;;
31836;SDS011;18401;49.344;6.240;2022-12-29T11:43:11;1.98;;;0.80;;
31836;SDS011;18401;49.344;6.240;2022-12-29T11:45:51;3.05;;;0.80;;
31836;SDS011;18401;49.344;6.240;2022-12-29T11:48:19;4.00;;;0.98;;
31836;SDS011;18401;49.344;6.240;2022-12-29T11:50:53;2.47;;;0.80;;
31836;SDS011;18401;49.344;6.240;2022-12-29T11:53:26;8.45;;;1.05;;
31836;SDS011;18401;49.344;6.240;2022-12-29T11:56:06;6.30;;;1.17;;
31836;SDS011;18401;49.344;6.240;2022-12-29T11:58:36;2.20;;;0.80;;
31836;SDS011;18401;49.344;6.240;2022-12-29T12:03:32;5.40;;;0.75;;
31836;SDS011;18401;49.344;6.240;2022-12-29T12:06:02;4.05;;;0.80;;
31836;SDS011;18401;49.344;6.240;2022-12-29T12:14:05;3.95;;;0.80;;
31836;SDS011;18401;49.344;6.240;2022-12-29T12:16:48;6.05;;;0.93;;
31836;SDS011;18401;49.344;6.240;2022-12-29T12:22:16;5.88;;;0.93;;
31836;SDS011;18401;49.344;6.240;2022-12-29T12:25:17;3.85;;;0.95;;
31836;SDS011;18401;49.344;6.240;2022-12-29T12:30:38;5.75;;;1.20;;
31836;SDS011;18401;49.344;6.240;2022-12-29T12:43:49;7.82;;;1.05;;
31836;SDS011;18401;49.344;6.240;2022-12-29T12:46:29;5.63;;;0.73;;
31836;SDS011;18401;49.344;6.240;2022-12-29T12:52:09;5.15;;;0.88;;
31836;SDS011;18401;49.344;6.240;2022-12-29T12:57:39;5.38;;;0.90;;
31836;SDS011;18401;49.344;6.240;2022-12-29T13:00:12;12.45;;;1.30;;
31836;SDS011;18401;49.344;6.240;2022-12-29T13:05:42;2.53;;;1.10;;
31836;SDS011;18401;49.344;6.240;2022-12-29T13:16:34;6.15;;;1.13;;
31836;SDS011;18401;49.344;6.240;2022-12-29T13:30:21;10.30;;;1.40;;
31836;SDS011;18401;49.344;6.240;2022-12-29T13:38:28;7.70;;;0.90;;
31836;SDS011;18401;49.344;6.240;2022-12-29T13:41:18;5.00;;;0.77;;
31836;SDS011;18401;49.344;6.240;2022-12-29T13:44:00;6.45;;;1.58;;
31836;SDS011;18401;49.344;6.240;2022-12-29T13:46:29;5.00;;;0.95;;
31836;SDS011;18401;49.344;6.240;2022-12-29T13:49:08;5.95;;;1.02;;
31836;SDS011;18401;49.344;6.240;2022-12-29T13:51:47;11.82;;;1.58;;
31836;SDS011;18401;49.344;6.240;2022-12-29T13:54:27;11.98;;;1.00;;
31836;SDS011;18401;49.344;6.240;2022-12-29T14:00:19;5.80;;;1.58;;
31836;SDS011;18401;49.344;6.240;2022-12-29T14:05:31;6.70;;;1.15;;
31836;SDS011;18401;49.344;6.240;2022-12-29T14:08:01;5.57;;;1.10;;
31836;SDS011;18401;49.344;6.240;2022-12-29T14:10:37;8.45;;;1.23;;
31836;SDS011;18401;49.344;6.240;2022-12-29T14:15:39;9.13;;;1.40;;
31836;SDS011;18401;49.344;6.240;2022-12-29T14:18:17;11.18;;;1.40;;
31836;SDS011;18401;49.344;6.240;2022-12-29T14:20:58;10.25;;;1.42;;
31836;SDS011;18401;49.344;6.240;2022-12-29T14:23:44;8.50;;;1.38;;
31836;SDS011;18401;49.344;6.240;2022-12-29T14:26:53;5.95;;;1.17;;
31836;SDS011;18401;49.344;6.240;2022-12-29T14:31:41;6.63;;;1.95;;
31836;SDS011;18401;49.344;6.240;2022-12-29T14:36:53;9.45;;;1.40;;
31836;SDS011;18401;49.344;6.240;2022-12-29T14:39:40;8.82;;;1.50;;
31836;SDS011;18401;49.344;6.240;2022-12-29T14:44:55;11.73;;;1.25;;
31836;SDS011;18401;49.344;6.240;2022-12-29T14:47:39;9.77;;;1.50;;
31836;SDS011;18401;49.344;6.240;2022-12-29T14:53:04;10.35;;;2.05;;
31836;SDS011;18401;49.344;6.240;2022-12-29T14:55:55;16.10;;;1.60;;
31836;SDS011;18401;49.344;6.240;2022-12-29T14:58:27;8.65;;;1.15;;
31836;SDS011;18401;49.344;6.240;2022-12-29T15:00:55;9.10;;;1.77;;
31836;SDS011;18401;49.344;6.240;2022-12-29T15:03:22;8.40;;;1.48;;
31836;SDS011;18401;49.344;6.240;2022-12-29T15:06:09;10.07;;;1.40;;
31836;SDS011;18401;49.344;6.240;2022-12-29T15:08:46;13.23;;;1.92;;
31836;SDS011;18401;49.344;6.240;2022-12-29T15:11:20;9.90;;;1.63;;
31836;SDS011;18401;49.344;6.240;2022-12-29T15:13:46;13.52;;;1.83;;
31836;SDS011;18401;49.344;6.240;2022-12-29T15:16:30;19.25;;;1.67;;
31836;SDS011;18401;49.344;6.240;2022-12-29T15:18:56;12.98;;;1.45;;
31836;SDS011;18401;49.344;6.240;2022-12-29T15:21:24;4.28;;;1.35;;
31836;SDS011;18401;49.344;6.240;2022-12-29T15:23:52;6.68;;;1.45;;
31836;SDS011;18401;49.344;6.240;2022-12-29T15:26:18;10.55;;;2.08;;
31836;SDS011;18401;49.344;6.240;2022-12-29T15:28:51;9.65;;;1.60;;
31836;SDS011;18401;49.344;6.240;2022-12-29T15:31:25;11.93;;;2.47;;
31836;SDS011;18401;49.344;6.240;2022-12-29T15:33:55;9.52;;;1.30;;
31836;SDS011;18401;49.344;6.240;2022-12-29T15:36:28;7.80;;;2.00;;
31836;SDS011;18401;49.344;6.240;2022-12-29T15:39:01;12.57;;;1.70;;
31836;SDS011;18401;49.344;6.240;2022-12-29T15:41:53;12.35;;;1.98;;
31836;SDS011;18401;49.344;6.240;2022-12-29T15:47:04;9.95;;;1.20;;
31836;SDS011;18401;49.344;6.240;2022-12-29T15:49:35;10.60;;;1.58;;
31836;SDS011;18401;49.344;6.240;2022-12-29T15:52:01;6.20;;;1.50;;
31836;SDS011;18401;49.344;6.240;2022-12-29T15:54:33;7.72;;;1.35;;
31836;SDS011;18401;49.344;6.240;2022-12-29T15:56:59;9.13;;;1.60;;
31836;SDS011;18401;49.344;6.240;2022-12-29T15:59:27;17.25;;;1.83;;
31836;SDS011;18401;49.344;6.240;2022-12-29T16:01:55;8.48;;;1.35;;
31836;SDS011;18401;49.344;6.240;2022-12-29T16:04:22;11.50;;;1.75;;
31836;SDS011;18401;49.344;6.240;2022-12-29T16:06:54;10.05;;;1.70;;
31836;SDS011;18401;49.344;6.240;2022-12-29T16:09:35;9.20;;;1.55;;
31836;SDS011;18401;49.344;6.240;2022-12-29T16:12:07;8.63;;;1.77;;
31836;SDS011;18401;49.344;6.240;2022-12-29T16:14:42;7.78;;;1.67;;
31836;SDS011;18401;49.344;6.240;2022-12-29T16:17:15;12.18;;;1.90;;
31836;SDS011;18401;49.344;6.240;2022-12-29T16:19:50;13.68;;;2.10;;
31836;SDS011;18401;49.344;6.240;2022-12-29T16:22:32;6.50;;;1.10;;
31836;SDS011;18401;49.344;6.240;2022-12-29T16:25:00;16.73;;;2.83;;
31836;SDS011;18401;49.344;6.240;2022-12-29T16:28:01;16.98;;;1.98;;
31836;SDS011;18401;49.344;6.240;2022-12-29T16:30:20;12.82;;;1.30;;
31836;SDS011;18401;49.344;6.240;2022-12-29T16:32:49;10.88;;;1.50;;
31836;SDS011;18401;49.344;6.240;2022-12-29T16:35:18;4.00;;;1.10;;
31836;SDS011;18401;49.344;6.240;2022-12-29T16:37:44;7.07;;;1.35;;
31836;SDS011;18401;49.344;6.240;2022-12-29T16:47:47;11.43;;;1.38;;
31836;SDS011;18401;49.344;6.240;2022-12-29T16:50:17;9.13;;;1.42;;
31836;SDS011;18401;49.344;6.240;2022-12-29T16:52:46;11.38;;;1.88;;
31836;SDS011;18401;49.344;6.240;2022-12-29T16:55:15;11.70;;;1.83;;
31836;SDS011;18401;49.344;6.240;2022-12-29T16:57:43;12.40;;;1.70;;
31836;SDS011;18401;49.344;6.240;2022-12-29T17:00:44;7.40;;;1.38;;
31836;SDS011;18401;49.344;6.240;2022-12-29T17:03:02;9.07;;;2.05;;
31836;SDS011;18401;49.344;6.240;2022-12-29T17:05:28;10.32;;;2.30;;
31836;SDS011;18401;49.344;6.240;2022-12-29T17:07:54;9.13;;;1.20;;
31836;SDS011;18401;49.344;6.240;2022-12-29T17:10:25;15.77;;;2.00;;
31836;SDS011;18401;49.344;6.240;2022-12-29T17:13:11;9.40;;;1.90;;
31836;SDS011;18401;49.344;6.240;2022-12-29T17:15:37;14.02;;;1.80;;
31836;SDS011;18401;49.344;6.240;2022-12-29T17:18:03;4.88;;;1.75;;
31836;SDS011;18401;49.344;6.240;2022-12-29T17:20:30;13.48;;;2.10;;
31836;SDS011;18401;49.344;6.240;2022-12-29T17:22:56;16.98;;;2.28;;
31836;SDS011;18401;49.344;6.240;2022-12-29T17:25:25;9.77;;;1.73;;
31836;SDS011;18401;49.344;6.240;2022-12-29T17:30:25;6.50;;;2.03;;
31836;SDS011;18401;49.344;6.240;2022-12-29T17:32:53;8.13;;;2.00;;
31836;SDS011;18401;49.344;6.240;2022-12-29T17:35:23;9.70;;;2.10;;
31836;SDS011;18401;49.344;6.240;2022-12-29T17:37:49;11.07;;;2.55;;
31836;SDS011;18401;49.344;6.240;2022-12-29T17:40:19;17.73;;;2.67;;
31836;SDS011;18401;49.344;6.240;2022-12-29T17:42:47;8.35;;;1.90;;